sensor_id;sensor_type;location;lat;lon;timestamp;P1;durP1;ratioP1;P2;durP2;ratioP2
32347;SDS011;18821;44.800;10.326;2022-12-07T00:01:42;44.75;;;24.50;;
32347;SDS011;18821;44.800;10.326;2022-12-07T00:04:11;48.40;;;25.95;;
32347;SDS011;18821;44.800;10.326;2022-12-07T00:06:40;47.72;;;25.33;;
32347;SDS011;18821;44.800;10.326;2022-12-07T00:09:13;44.83;;;25.90;;
32347;SDS011;18821;44.800;10.326;2022-12-07T00:11:41;43.42;;;25.52;;
32347;SDS011;18821;44.800;10.326;2022-12-07T00:14:10;48.15;;;23.75;;
32347;SDS011;18821;44.800;10.326;2022-12-07T00:16:38;42.13;;;21.60;;
32347;SDS011;18821;44.800;10.326;2022-12-07T00:19:05;41.67;;;22.77;;
32347;SDS011;18821;44.800;10.326;2022-12-07T00:21:33;42.72;;;23.02;;
32347;SDS011;18821;44.800;10.326;2022-12-07T00:24:01;39.33;;;21.63;;
32347;SDS011;18821;44.800;10.326;2022-12-07T00:26:28;38.05;;;20.98;;
32347;SDS011;18821;44.800;10.326;2022-12-07T00:29:00;36.17;;;20.85;;
32347;SDS011;18821;44.800;10.326;2022-12-07T00:31:34;36.80;;;20.30;;
32347;SDS011;18821;44.800;10.326;2022-12-07T00:34:04;36.28;;;21.00;;
32347;SDS011;18821;44.800;10.326;2022-12-07T00:36:31;34.67;;;20.35;;
32347;SDS011;18821;44.800;10.326;2022-12-07T00:38:58;40.95;;;21.88;;
32347;SDS011;18821;44.800;10.326;2022-12-07T00:41:25;34.20;;;19.13;;
32347;SDS011;18821;44.800;10.326;2022-12-07T00:43:52;38.20;;;19.65;;
32347;SDS011;18821;44.800;10.326;2022-12-07T00:46:19;33.65;;;18.88;;
32347;SDS011;18821;44.800;10.326;2022-12-07T00:48:45;37.03;;;19.27;;
32347;SDS011;18821;44.800;10.326;2022-12-07T00:51:13;35.70;;;20.85;;
32347;SDS011;18821;44.800;10.326;2022-12-07T00:53:40;34.17;;;19.48;;
32347;SDS011;18821;44.800;10.326;2022-12-07T00:56:11;36.08;;;19.13;;
32347;SDS011;18821;44.800;10.326;2022-12-07T00:58:42;32.20;;;18.98;;
32347;SDS011;18821;44.800;10.326;2022-12-07T01:01:09;32.58;;;19.50;;
32347;SDS011;18821;44.800;10.326;2022-12-07T01:03:36;31.17;;;17.88;;
32347;SDS011;18821;44.800;10.326;2022-12-07T01:06:03;33.67;;;18.35;;
32347;SDS011;18821;44.800;10.326;2022-12-07T01:08:29;36.83;;;20.00;;
32347;SDS011;18821;44.800;10.326;2022-12-07T01:11:00;41.97;;;20.92;;
32347;SDS011;18821;44.800;10.326;2022-12-07T01:13:31;36.60;;;20.48;;
32347;SDS011;18821;44.800;10.326;2022-12-07T01:15:59;42.70;;;21.55;;
32347;SDS011;18821;44.800;10.326;2022-12-07T01:18:27;32.97;;;19.92;;
32347;SDS011;18821;44.800;10.326;2022-12-07T01:21:01;36.60;;;19.75;;
32347;SDS011;18821;44.800;10.326;2022-12-07T01:23:33;36.88;;;21.40;;
32347;SDS011;18821;44.800;10.326;2022-12-07T01:26:01;32.50;;;18.50;;
32347;SDS011;18821;44.800;10.326;2022-12-07T01:28:29;37.38;;;19.88;;
32347;SDS011;18821;44.800;10.326;2022-12-07T01:30:59;34.28;;;19.25;;
32347;SDS011;18821;44.800;10.326;2022-12-07T01:33:26;35.35;;;19.90;;
32347;SDS011;18821;44.800;10.326;2022-12-07T01:35:54;39.80;;;20.10;;
32347;SDS011;18821;44.800;10.326;2022-12-07T01:38:20;35.17;;;19.55;;
32347;SDS011;18821;44.800;10.326;2022-12-07T01:40:53;33.85;;;19.05;;
32347;SDS011;18821;44.800;10.326;2022-12-07T01:43:20;31.85;;;18.52;;
32347;SDS011;18821;44.800;10.326;2022-12-07T01:45:47;40.35;;;20.52;;
32347;SDS011;18821;44.800;10.326;2022-12-07T01:48:14;48.20;;;25.00;;
32347;SDS011;18821;44.800;10.326;2022-12-07T01:50:43;49.58;;;26.50;;
32347;SDS011;18821;44.800;10.326;2022-12-07T01:53:12;47.95;;;27.23;;
32347;SDS011;18821;44.800;10.326;2022-12-07T01:55:40;53.97;;;27.40;;
32347;SDS011;18821;44.800;10.326;2022-12-07T01:58:09;45.95;;;24.80;;
32347;SDS011;18821;44.800;10.326;2022-12-07T02:00:37;55.63;;;27.25;;
32347;SDS011;18821;44.800;10.326;2022-12-07T02:05:32;48.00;;;26.98;;
32347;SDS011;18821;44.800;10.326;2022-12-07T02:07:59;50.65;;;27.30;;
32347;SDS011;18821;44.800;10.326;2022-12-07T02:10:27;50.20;;;27.83;;
32347;SDS011;18821;44.800;10.326;2022-12-07T02:13:00;55.35;;;28.95;;
32347;SDS011;18821;44.800;10.326;2022-12-07T02:34:50;58.75;;;27.77;;
32347;SDS011;18821;44.800;10.326;2022-12-07T02:42:38;46.33;;;25.17;;
32347;SDS011;18821;44.800;10.326;2022-12-07T02:45:09;51.45;;;28.05;;
32347;SDS011;18821;44.800;10.326;2022-12-07T02:47:39;49.42;;;28.17;;
32347;SDS011;18821;44.800;10.326;2022-12-07T02:50:06;54.78;;;29.33;;
32347;SDS011;18821;44.800;10.326;2022-12-07T02:52:32;54.83;;;29.70;;
32347;SDS011;18821;44.800;10.326;2022-12-07T02:54:58;56.20;;;29.88;;
32347;SDS011;18821;44.800;10.326;2022-12-07T03:00:08;56.55;;;29.92;;
32347;SDS011;18821;44.800;10.326;2022-12-07T03:02:42;56.45;;;30.67;;
32347;SDS011;18821;44.800;10.326;2022-12-07T03:05:33;58.25;;;30.65;;
32347;SDS011;18821;44.800;10.326;2022-12-07T03:10:57;61.80;;;31.88;;
32347;SDS011;18821;44.800;10.326;2022-12-07T03:13:33;55.72;;;31.10;;
32347;SDS011;18821;44.800;10.326;2022-12-07T03:16:35;50.17;;;30.73;;
32347;SDS011;18821;44.800;10.326;2022-12-07T03:19:18;57.47;;;31.17;;
32347;SDS011;18821;44.800;10.326;2022-12-07T03:21:52;60.60;;;31.60;;
32347;SDS011;18821;44.800;10.326;2022-12-07T03:24:23;59.28;;;32.20;;
32347;SDS011;18821;44.800;10.326;2022-12-07T03:26:55;55.72;;;31.92;;
32347;SDS011;18821;44.800;10.326;2022-12-07T03:29:34;52.28;;;29.38;;
32347;SDS011;18821;44.800;10.326;2022-12-07T03:32:48;57.90;;;31.52;;
32347;SDS011;18821;44.800;10.326;2022-12-07T03:35:12;54.70;;;30.23;;
32347;SDS011;18821;44.800;10.326;2022-12-07T03:40:43;56.22;;;31.60;;
32347;SDS011;18821;44.800;10.326;2022-12-07T03:43:10;52.45;;;28.77;;
32347;SDS011;18821;44.800;10.326;2022-12-07T03:45:39;60.65;;;31.63;;
32347;SDS011;18821;44.800;10.326;2022-12-07T03:48:13;58.70;;;32.00;;
32347;SDS011;18821;44.800;10.326;2022-12-07T03:50:49;61.95;;;31.80;;
32347;SDS011;18821;44.800;10.326;2022-12-07T03:53:43;53.33;;;29.77;;
32347;SDS011;18821;44.800;10.326;2022-12-07T03:56:20;60.88;;;31.48;;
32347;SDS011;18821;44.800;10.326;2022-12-07T03:58:47;62.70;;;30.23;;
32347;SDS011;18821;44.800;10.326;2022-12-07T04:01:14;62.28;;;33.08;;
32347;SDS011;18821;44.800;10.326;2022-12-07T04:03:40;68.47;;;34.17;;
32347;SDS011;18821;44.800;10.326;2022-12-07T04:06:06;64.03;;;32.47;;
32347;SDS011;18821;44.800;10.326;2022-12-07T04:08:32;70.18;;;33.28;;
32347;SDS011;18821;44.800;10.326;2022-12-07T04:10:58;62.20;;;33.00;;
32347;SDS011;18821;44.800;10.326;2022-12-07T04:13:25;62.78;;;32.60;;
32347;SDS011;18821;44.800;10.326;2022-12-07T04:15:51;65.18;;;32.72;;
32347;SDS011;18821;44.800;10.326;2022-12-07T04:18:17;58.40;;;32.78;;
32347;SDS011;18821;44.800;10.326;2022-12-07T04:20:43;53.88;;;31.10;;
32347;SDS011;18821;44.800;10.326;2022-12-07T04:23:09;56.95;;;27.95;;
32347;SDS011;18821;44.800;10.326;2022-12-07T04:25:35;59.65;;;33.08;;
32347;SDS011;18821;44.800;10.326;2022-12-07T04:28:01;60.00;;;33.40;;
32347;SDS011;18821;44.800;10.326;2022-12-07T04:30:27;57.13;;;30.58;;
32347;SDS011;18821;44.800;10.326;2022-12-07T04:32:53;57.28;;;32.17;;
32347;SDS011;18821;44.800;10.326;2022-12-07T04:35:19;56.97;;;30.42;;
32347;SDS011;18821;44.800;10.326;2022-12-07T04:37:45;57.03;;;31.88;;
32347;SDS011;18821;44.800;10.326;2022-12-07T04:40:11;58.35;;;31.42;;
32347;SDS011;18821;44.800;10.326;2022-12-07T04:42:39;57.97;;;31.90;;
32347;SDS011;18821;44.800;10.326;2022-12-07T04:45:05;59.95;;;32.13;;
32347;SDS011;18821;44.800;10.326;2022-12-07T04:47:32;61.47;;;31.90;;
32347;SDS011;18821;44.800;10.326;2022-12-07T04:49:58;56.80;;;30.23;;
32347;SDS011;18821;44.800;10.326;2022-12-07T04:52:24;49.30;;;29.48;;
32347;SDS011;18821;44.800;10.326;2022-12-07T04:54:50;56.28;;;30.45;;
32347;SDS011;18821;44.800;10.326;2022-12-07T04:57:16;55.78;;;29.35;;
32347;SDS011;18821;44.800;10.326;2022-12-07T04:59:42;45.63;;;26.85;;
32347;SDS011;18821;44.800;10.326;2022-12-07T05:02:07;42.45;;;23.27;;
32347;SDS011;18821;44.800;10.326;2022-12-07T05:04:33;46.22;;;26.13;;
32347;SDS011;18821;44.800;10.326;2022-12-07T05:06:59;52.00;;;27.33;;
32347;SDS011;18821;44.800;10.326;2022-12-07T05:09:25;47.05;;;26.98;;
32347;SDS011;18821;44.800;10.326;2022-12-07T05:11:51;47.05;;;27.92;;
32347;SDS011;18821;44.800;10.326;2022-12-07T05:14:18;44.95;;;25.25;;
32347;SDS011;18821;44.800;10.326;2022-12-07T05:16:46;45.85;;;26.67;;
32347;SDS011;18821;44.800;10.326;2022-12-07T05:19:14;49.75;;;28.52;;
32347;SDS011;18821;44.800;10.326;2022-12-07T05:21:40;54.25;;;27.73;;
32347;SDS011;18821;44.800;10.326;2022-12-07T05:24:07;56.15;;;29.65;;
32347;SDS011;18821;44.800;10.326;2022-12-07T05:26:35;49.08;;;27.83;;
32347;SDS011;18821;44.800;10.326;2022-12-07T05:29:01;55.22;;;28.58;;
32347;SDS011;18821;44.800;10.326;2022-12-07T05:31:27;52.72;;;29.02;;
32347;SDS011;18821;44.800;10.326;2022-12-07T05:33:53;55.38;;;29.35;;
32347;SDS011;18821;44.800;10.326;2022-12-07T05:36:19;53.47;;;28.85;;
32347;SDS011;18821;44.800;10.326;2022-12-07T05:38:45;56.75;;;29.75;;
32347;SDS011;18821;44.800;10.326;2022-12-07T05:41:12;56.92;;;31.58;;
32347;SDS011;18821;44.800;10.326;2022-12-07T05:43:58;72.63;;;27.65;;
32347;SDS011;18821;44.800;10.326;2022-12-07T05:46:24;79.13;;;29.17;;
32347;SDS011;18821;44.800;10.326;2022-12-07T05:48:50;64.68;;;31.40;;
32347;SDS011;18821;44.800;10.326;2022-12-07T05:51:16;123.97;;;31.35;;
32347;SDS011;18821;44.800;10.326;2022-12-07T05:53:43;74.10;;;20.38;;
32347;SDS011;18821;44.800;10.326;2022-12-07T05:56:09;216.20;;;33.10;;
32347;SDS011;18821;44.800;10.326;2022-12-07T05:58:35;70.80;;;29.15;;
32347;SDS011;18821;44.800;10.326;2022-12-07T06:01:20;66.18;;;31.02;;
32347;SDS011;18821;44.800;10.326;2022-12-07T06:03:46;91.63;;;33.00;;
32347;SDS011;18821;44.800;10.326;2022-12-07T06:06:11;98.47;;;35.97;;
32347;SDS011;18821;44.800;10.326;2022-12-07T06:08:37;115.97;;;34.38;;
32347;SDS011;18821;44.800;10.326;2022-12-07T06:11:03;79.30;;;35.30;;
32347;SDS011;18821;44.800;10.326;2022-12-07T06:13:48;81.60;;;34.03;;
32347;SDS011;18821;44.800;10.326;2022-12-07T06:16:14;74.78;;;34.63;;
32347;SDS011;18821;44.800;10.326;2022-12-07T06:18:40;94.75;;;35.50;;
32347;SDS011;18821;44.800;10.326;2022-12-07T06:21:06;85.72;;;35.58;;
32347;SDS011;18821;44.800;10.326;2022-12-07T06:23:31;76.63;;;34.35;;
32347;SDS011;18821;44.800;10.326;2022-12-07T06:25:57;70.63;;;33.90;;
32347;SDS011;18821;44.800;10.326;2022-12-07T06:28:23;73.57;;;36.05;;
32347;SDS011;18821;44.800;10.326;2022-12-07T06:30:57;71.25;;;34.45;;
32347;SDS011;18821;44.800;10.326;2022-12-07T06:33:26;68.18;;;32.58;;
32347;SDS011;18821;44.800;10.326;2022-12-07T06:35:53;57.17;;;30.92;;
32347;SDS011;18821;44.800;10.326;2022-12-07T06:38:20;59.85;;;29.65;;
32347;SDS011;18821;44.800;10.326;2022-12-07T06:40:45;50.72;;;28.88;;
32347;SDS011;18821;44.800;10.326;2022-12-07T06:43:12;49.88;;;26.70;;
32347;SDS011;18821;44.800;10.326;2022-12-07T06:45:38;50.35;;;27.42;;
32347;SDS011;18821;44.800;10.326;2022-12-07T06:48:04;54.25;;;27.63;;
32347;SDS011;18821;44.800;10.326;2022-12-07T06:50:30;44.45;;;25.10;;
32347;SDS011;18821;44.800;10.326;2022-12-07T06:52:57;43.05;;;23.27;;
32347;SDS011;18821;44.800;10.326;2022-12-07T06:55:23;38.90;;;20.80;;
32347;SDS011;18821;44.800;10.326;2022-12-07T06:57:49;39.67;;;20.35;;
32347;SDS011;18821;44.800;10.326;2022-12-07T07:00:15;35.75;;;20.33;;
32347;SDS011;18821;44.800;10.326;2022-12-07T07:02:41;38.38;;;20.73;;
32347;SDS011;18821;44.800;10.326;2022-12-07T07:05:07;33.63;;;17.98;;
32347;SDS011;18821;44.800;10.326;2022-12-07T07:07:33;32.22;;;17.85;;
32347;SDS011;18821;44.800;10.326;2022-12-07T07:09:59;37.03;;;21.05;;
32347;SDS011;18821;44.800;10.326;2022-12-07T07:12:25;40.33;;;21.90;;
32347;SDS011;18821;44.800;10.326;2022-12-07T07:14:51;41.47;;;21.05;;
32347;SDS011;18821;44.800;10.326;2022-12-07T07:17:17;37.60;;;19.85;;
32347;SDS011;18821;44.800;10.326;2022-12-07T07:19:43;40.25;;;20.80;;
32347;SDS011;18821;44.800;10.326;2022-12-07T07:22:10;33.75;;;20.33;;
32347;SDS011;18821;44.800;10.326;2022-12-07T07:24:36;38.00;;;20.85;;
32347;SDS011;18821;44.800;10.326;2022-12-07T07:27:02;35.55;;;20.90;;
32347;SDS011;18821;44.800;10.326;2022-12-07T07:29:28;36.35;;;21.17;;
32347;SDS011;18821;44.800;10.326;2022-12-07T07:31:54;36.80;;;21.20;;
32347;SDS011;18821;44.800;10.326;2022-12-07T07:34:20;38.20;;;21.73;;
32347;SDS011;18821;44.800;10.326;2022-12-07T07:36:47;45.05;;;21.15;;
32347;SDS011;18821;44.800;10.326;2022-12-07T07:39:13;34.70;;;19.67;;
32347;SDS011;18821;44.800;10.326;2022-12-07T07:41:39;38.67;;;22.17;;
32347;SDS011;18821;44.800;10.326;2022-12-07T07:44:11;37.78;;;19.33;;
32347;SDS011;18821;44.800;10.326;2022-12-07T07:46:37;36.50;;;21.15;;
32347;SDS011;18821;44.800;10.326;2022-12-07T07:49:03;42.80;;;21.35;;
32347;SDS011;18821;44.800;10.326;2022-12-07T07:51:29;42.08;;;20.30;;
32347;SDS011;18821;44.800;10.326;2022-12-07T07:53:55;34.58;;;20.63;;
32347;SDS011;18821;44.800;10.326;2022-12-07T07:56:23;36.17;;;21.20;;
32347;SDS011;18821;44.800;10.326;2022-12-07T07:58:51;38.78;;;22.13;;
32347;SDS011;18821;44.800;10.326;2022-12-07T08:01:17;38.63;;;22.20;;
32347;SDS011;18821;44.800;10.326;2022-12-07T08:03:46;40.40;;;23.02;;
32347;SDS011;18821;44.800;10.326;2022-12-07T08:06:13;36.00;;;21.00;;
32347;SDS011;18821;44.800;10.326;2022-12-07T08:08:39;36.90;;;19.92;;
32347;SDS011;18821;44.800;10.326;2022-12-07T08:11:06;54.83;;;23.25;;
32347;SDS011;18821;44.800;10.326;2022-12-07T08:13:33;45.13;;;23.58;;
32347;SDS011;18821;44.800;10.326;2022-12-07T08:16:07;43.47;;;22.67;;
32347;SDS011;18821;44.800;10.326;2022-12-07T08:18:37;43.72;;;20.83;;
32347;SDS011;18821;44.800;10.326;2022-12-07T08:21:04;43.72;;;22.85;;
32347;SDS011;18821;44.800;10.326;2022-12-07T08:23:32;36.58;;;18.45;;
32347;SDS011;18821;44.800;10.326;2022-12-07T08:26:03;41.75;;;23.27;;
32347;SDS011;18821;44.800;10.326;2022-12-07T08:28:31;43.50;;;21.67;;
32347;SDS011;18821;44.800;10.326;2022-12-07T08:31:01;36.40;;;18.92;;
32347;SDS011;18821;44.800;10.326;2022-12-07T08:33:28;48.22;;;22.77;;
32347;SDS011;18821;44.800;10.326;2022-12-07T08:35:55;40.88;;;22.25;;
32347;SDS011;18821;44.800;10.326;2022-12-07T08:38:35;39.33;;;23.50;;
32347;SDS011;18821;44.800;10.326;2022-12-07T08:41:02;47.28;;;24.13;;
32347;SDS011;18821;44.800;10.326;2022-12-07T08:43:28;44.45;;;24.00;;
32347;SDS011;18821;44.800;10.326;2022-12-07T08:46:16;42.15;;;21.95;;
32347;SDS011;18821;44.800;10.326;2022-12-07T08:48:46;40.65;;;20.48;;
32347;SDS011;18821;44.800;10.326;2022-12-07T08:51:21;46.50;;;23.48;;
32347;SDS011;18821;44.800;10.326;2022-12-07T08:53:48;30.77;;;12.68;;
32347;SDS011;18821;44.800;10.326;2022-12-07T08:56:15;44.85;;;25.90;;
32347;SDS011;18821;44.800;10.326;2022-12-07T08:58:43;44.65;;;25.58;;
32347;SDS011;18821;44.800;10.326;2022-12-07T09:01:10;54.42;;;26.92;;
32347;SDS011;18821;44.800;10.326;2022-12-07T09:03:36;48.45;;;27.25;;
32347;SDS011;18821;44.800;10.326;2022-12-07T09:06:02;48.30;;;26.42;;
32347;SDS011;18821;44.800;10.326;2022-12-07T09:08:36;31.83;;;18.17;;
32347;SDS011;18821;44.800;10.326;2022-12-07T09:11:07;57.53;;;27.27;;
32347;SDS011;18821;44.800;10.326;2022-12-07T09:13:33;47.00;;;25.70;;
32347;SDS011;18821;44.800;10.326;2022-12-07T09:15:59;52.28;;;25.70;;
32347;SDS011;18821;44.800;10.326;2022-12-07T09:18:26;49.10;;;25.55;;
32347;SDS011;18821;44.800;10.326;2022-12-07T09:20:52;51.42;;;27.77;;
32347;SDS011;18821;44.800;10.326;2022-12-07T09:23:18;46.17;;;25.63;;
32347;SDS011;18821;44.800;10.326;2022-12-07T09:25:44;49.45;;;26.20;;
32347;SDS011;18821;44.800;10.326;2022-12-07T09:28:10;43.20;;;24.40;;
32347;SDS011;18821;44.800;10.326;2022-12-07T09:30:36;46.45;;;25.88;;
32347;SDS011;18821;44.800;10.326;2022-12-07T09:33:02;40.97;;;24.92;;
32347;SDS011;18821;44.800;10.326;2022-12-07T09:35:28;44.63;;;24.10;;
32347;SDS011;18821;44.800;10.326;2022-12-07T09:37:53;41.42;;;23.80;;
32347;SDS011;18821;44.800;10.326;2022-12-07T09:40:20;42.78;;;25.13;;
32347;SDS011;18821;44.800;10.326;2022-12-07T09:42:48;42.75;;;24.27;;
32347;SDS011;18821;44.800;10.326;2022-12-07T09:45:22;39.42;;;24.00;;
32347;SDS011;18821;44.800;10.326;2022-12-07T09:47:52;38.70;;;22.75;;
32347;SDS011;18821;44.800;10.326;2022-12-07T09:50:20;42.45;;;24.75;;
32347;SDS011;18821;44.800;10.326;2022-12-07T09:52:48;44.80;;;23.83;;
32347;SDS011;18821;44.800;10.326;2022-12-07T09:55:19;41.10;;;23.20;;
32347;SDS011;18821;44.800;10.326;2022-12-07T09:57:52;40.63;;;22.60;;
32347;SDS011;18821;44.800;10.326;2022-12-07T10:00:20;37.75;;;22.25;;
32347;SDS011;18821;44.800;10.326;2022-12-07T10:02:57;38.47;;;21.85;;
32347;SDS011;18821;44.800;10.326;2022-12-07T10:08:24;37.15;;;21.42;;
32347;SDS011;18821;44.800;10.326;2022-12-07T10:11:02;32.08;;;18.60;;
32347;SDS011;18821;44.800;10.326;2022-12-07T10:13:39;34.28;;;21.27;;
32347;SDS011;18821;44.800;10.326;2022-12-07T10:16:53;35.30;;;21.17;;
32347;SDS011;18821;44.800;10.326;2022-12-07T10:19:49;34.85;;;21.70;;
32347;SDS011;18821;44.800;10.326;2022-12-07T10:24:39;41.33;;;21.05;;
32347;SDS011;18821;44.800;10.326;2022-12-07T10:27:30;34.97;;;20.60;;
32347;SDS011;18821;44.800;10.326;2022-12-07T10:29:57;35.97;;;21.70;;
32347;SDS011;18821;44.800;10.326;2022-12-07T10:32:27;36.97;;;20.73;;
32347;SDS011;18821;44.800;10.326;2022-12-07T10:37:52;35.80;;;20.48;;
32347;SDS011;18821;44.800;10.326;2022-12-07T10:43:05;34.47;;;20.55;;
32347;SDS011;18821;44.800;10.326;2022-12-07T10:48:20;41.85;;;22.02;;
32347;SDS011;18821;44.800;10.326;2022-12-07T10:56:46;41.17;;;22.88;;
32347;SDS011;18821;44.800;10.326;2022-12-07T10:59:43;45.00;;;25.95;;
32347;SDS011;18821;44.800;10.326;2022-12-07T11:02:26;45.88;;;26.20;;
32347;SDS011;18821;44.800;10.326;2022-12-07T11:11:01;39.28;;;22.70;;
32347;SDS011;18821;44.800;10.326;2022-12-07T11:13:47;43.70;;;23.75;;
32347;SDS011;18821;44.800;10.326;2022-12-07T11:16:34;47.03;;;25.73;;
32347;SDS011;18821;44.800;10.326;2022-12-07T11:22:03;43.92;;;24.38;;
32347;SDS011;18821;44.800;10.326;2022-12-07T11:32:22;50.88;;;25.85;;
32347;SDS011;18821;44.800;10.326;2022-12-07T11:37:40;49.55;;;26.35;;
32347;SDS011;18821;44.800;10.326;2022-12-07T11:40:20;54.83;;;27.25;;
32347;SDS011;18821;44.800;10.326;2022-12-07T11:45:43;52.10;;;27.20;;
32347;SDS011;18821;44.800;10.326;2022-12-07T11:48:18;51.33;;;24.38;;
32347;SDS011;18821;44.800;10.326;2022-12-07T11:50:50;49.22;;;25.83;;
32347;SDS011;18821;44.800;10.326;2022-12-07T11:53:25;54.80;;;30.10;;
32347;SDS011;18821;44.800;10.326;2022-12-07T11:56:20;56.35;;;30.23;;
32347;SDS011;18821;44.800;10.326;2022-12-07T12:03:53;67.88;;;33.53;;
32347;SDS011;18821;44.800;10.326;2022-12-07T12:06:26;64.00;;;34.75;;
32347;SDS011;18821;44.800;10.326;2022-12-07T12:09:01;61.55;;;30.58;;
32347;SDS011;18821;44.800;10.326;2022-12-07T12:11:53;65.78;;;30.77;;
32347;SDS011;18821;44.800;10.326;2022-12-07T12:20:29;54.83;;;27.60;;
32347;SDS011;18821;44.800;10.326;2022-12-07T12:25:50;54.30;;;24.85;;
32347;SDS011;18821;44.800;10.326;2022-12-07T12:31:05;63.22;;;33.17;;
32347;SDS011;18821;44.800;10.326;2022-12-07T12:33:38;64.97;;;33.42;;
32347;SDS011;18821;44.800;10.326;2022-12-07T12:46:50;65.38;;;28.85;;
32347;SDS011;18821;44.800;10.326;2022-12-07T12:51:49;73.07;;;33.05;;
32347;SDS011;18821;44.800;10.326;2022-12-07T12:54:21;71.07;;;36.40;;
32347;SDS011;18821;44.800;10.326;2022-12-07T12:59:33;75.80;;;35.50;;
32347;SDS011;18821;44.800;10.326;2022-12-07T13:02:21;83.35;;;34.05;;
32347;SDS011;18821;44.800;10.326;2022-12-07T13:08:00;67.32;;;33.72;;
32347;SDS011;18821;44.800;10.326;2022-12-07T13:10:37;69.35;;;34.10;;
32347;SDS011;18821;44.800;10.326;2022-12-07T13:20:40;111.43;;;31.80;;
32347;SDS011;18821;44.800;10.326;2022-12-07T13:23:13;101.80;;;34.28;;
32347;SDS011;18821;44.800;10.326;2022-12-07T13:25:46;64.28;;;32.45;;
32347;SDS011;18821;44.800;10.326;2022-12-07T13:28:37;65.03;;;28.70;;
32347;SDS011;18821;44.800;10.326;2022-12-07T13:31:11;164.90;;;34.28;;
32347;SDS011;18821;44.800;10.326;2022-12-07T13:33:45;67.53;;;33.42;;
32347;SDS011;18821;44.800;10.326;2022-12-07T13:36:20;80.40;;;36.38;;
32347;SDS011;18821;44.800;10.326;2022-12-07T13:38:53;83.43;;;39.72;;
32347;SDS011;18821;44.800;10.326;2022-12-07T13:41:27;83.38;;;39.72;;
32347;SDS011;18821;44.800;10.326;2022-12-07T13:46:31;84.65;;;37.42;;
32347;SDS011;18821;44.800;10.326;2022-12-07T13:49:24;81.38;;;38.15;;
32347;SDS011;18821;44.800;10.326;2022-12-07T13:51:55;80.03;;;37.80;;
32347;SDS011;18821;44.800;10.326;2022-12-07T13:54:48;83.82;;;38.17;;
32347;SDS011;18821;44.800;10.326;2022-12-07T13:57:25;85.22;;;37.38;;
32347;SDS011;18821;44.800;10.326;2022-12-07T13:59:53;82.88;;;38.00;;
32347;SDS011;18821;44.800;10.326;2022-12-07T14:02:29;84.10;;;37.70;;
32347;SDS011;18821;44.800;10.326;2022-12-07T14:05:07;85.57;;;38.70;;
32347;SDS011;18821;44.800;10.326;2022-12-07T14:07:34;84.80;;;39.28;;
32347;SDS011;18821;44.800;10.326;2022-12-07T14:10:03;85.25;;;38.38;;
32347;SDS011;18821;44.800;10.326;2022-12-07T14:12:31;78.20;;;35.88;;
32347;SDS011;18821;44.800;10.326;2022-12-07T14:15:01;86.60;;;38.30;;
32347;SDS011;18821;44.800;10.326;2022-12-07T14:17:28;77.55;;;35.65;;
32347;SDS011;18821;44.800;10.326;2022-12-07T14:19:55;76.75;;;35.13;;
32347;SDS011;18821;44.800;10.326;2022-12-07T14:22:36;62.83;;;30.95;;
32347;SDS011;18821;44.800;10.326;2022-12-07T14:27:39;99.43;;;34.42;;
32347;SDS011;18821;44.800;10.326;2022-12-07T14:30:15;82.95;;;36.03;;
32347;SDS011;18821;44.800;10.326;2022-12-07T14:32:42;82.40;;;36.00;;
32347;SDS011;18821;44.800;10.326;2022-12-07T14:35:14;74.63;;;35.08;;
32347;SDS011;18821;44.800;10.326;2022-12-07T14:37:42;76.18;;;35.20;;
32347;SDS011;18821;44.800;10.326;2022-12-07T14:40:21;100.30;;;33.38;;
32347;SDS011;18821;44.800;10.326;2022-12-07T14:42:53;86.97;;;34.25;;
32347;SDS011;18821;44.800;10.326;2022-12-07T14:45:23;79.72;;;36.22;;
32347;SDS011;18821;44.800;10.326;2022-12-07T14:47:49;81.18;;;37.08;;
32347;SDS011;18821;44.800;10.326;2022-12-07T14:50:16;85.97;;;37.95;;
32347;SDS011;18821;44.800;10.326;2022-12-07T14:52:45;86.32;;;39.33;;
32347;SDS011;18821;44.800;10.326;2022-12-07T14:55:28;87.35;;;38.40;;
32347;SDS011;18821;44.800;10.326;2022-12-07T14:57:55;78.45;;;35.00;;
32347;SDS011;18821;44.800;10.326;2022-12-07T15:00:23;81.35;;;38.20;;
32347;SDS011;18821;44.800;10.326;2022-12-07T15:02:50;96.47;;;36.92;;
32347;SDS011;18821;44.800;10.326;2022-12-07T15:05:17;103.95;;;38.03;;
32347;SDS011;18821;44.800;10.326;2022-12-07T15:07:44;92.32;;;36.50;;
32347;SDS011;18821;44.800;10.326;2022-12-07T15:10:44;93.53;;;38.35;;
32347;SDS011;18821;44.800;10.326;2022-12-07T15:13:07;81.35;;;34.58;;
32347;SDS011;18821;44.800;10.326;2022-12-07T15:15:52;92.30;;;35.75;;
32347;SDS011;18821;44.800;10.326;2022-12-07T15:18:19;89.82;;;38.95;;
32347;SDS011;18821;44.800;10.326;2022-12-07T15:20:46;86.68;;;37.60;;
32347;SDS011;18821;44.800;10.326;2022-12-07T15:23:13;130.85;;;38.60;;
32347;SDS011;18821;44.800;10.326;2022-12-07T15:25:43;100.72;;;42.92;;
32347;SDS011;18821;44.800;10.326;2022-12-07T15:28:10;110.60;;;42.33;;
32347;SDS011;18821;44.800;10.326;2022-12-07T15:30:36;107.85;;;42.97;;
32347;SDS011;18821;44.800;10.326;2022-12-07T15:33:03;93.88;;;41.35;;
32347;SDS011;18821;44.800;10.326;2022-12-07T15:35:29;103.95;;;43.80;;
32347;SDS011;18821;44.800;10.326;2022-12-07T15:37:55;100.07;;;43.28;;
32347;SDS011;18821;44.800;10.326;2022-12-07T15:40:21;107.40;;;41.92;;
32347;SDS011;18821;44.800;10.326;2022-12-07T15:42:47;97.03;;;41.25;;
32347;SDS011;18821;44.800;10.326;2022-12-07T15:45:13;99.47;;;40.33;;
32347;SDS011;18821;44.800;10.326;2022-12-07T15:47:43;104.55;;;44.05;;
32347;SDS011;18821;44.800;10.326;2022-12-07T15:50:12;100.25;;;42.85;;
32347;SDS011;18821;44.800;10.326;2022-12-07T15:52:39;97.05;;;40.08;;
32347;SDS011;18821;44.800;10.326;2022-12-07T15:55:06;95.72;;;38.53;;
32347;SDS011;18821;44.800;10.326;2022-12-07T15:57:34;92.93;;;37.20;;
32347;SDS011;18821;44.800;10.326;2022-12-07T16:00:03;96.15;;;38.60;;
32347;SDS011;18821;44.800;10.326;2022-12-07T16:02:32;99.25;;;41.17;;
32347;SDS011;18821;44.800;10.326;2022-12-07T16:04:58;99.15;;;40.22;;
32347;SDS011;18821;44.800;10.326;2022-12-07T16:07:24;99.85;;;40.97;;
32347;SDS011;18821;44.800;10.326;2022-12-07T16:09:50;95.97;;;38.10;;
32347;SDS011;18821;44.800;10.326;2022-12-07T16:12:16;92.50;;;40.33;;
32347;SDS011;18821;44.800;10.326;2022-12-07T16:14:42;101.60;;;39.92;;
32347;SDS011;18821;44.800;10.326;2022-12-07T16:17:09;93.75;;;40.45;;
32347;SDS011;18821;44.800;10.326;2022-12-07T16:19:35;98.18;;;39.40;;
32347;SDS011;18821;44.800;10.326;2022-12-07T16:22:02;99.25;;;35.63;;
32347;SDS011;18821;44.800;10.326;2022-12-07T16:24:29;84.47;;;35.78;;
32347;SDS011;18821;44.800;10.326;2022-12-07T16:26:55;90.32;;;38.03;;
32347;SDS011;18821;44.800;10.326;2022-12-07T16:29:22;88.00;;;36.83;;
32347;SDS011;18821;44.800;10.326;2022-12-07T16:31:48;84.90;;;37.08;;